createdAt,value
2023-05-14T00:00:02.714Z,10.8127
2023-05-14T00:01:03.787Z,10.8439
2023-05-14T00:02:04.922Z,10.8403
2023-05-14T00:03:06.239Z,10.8186
2023-05-14T00:04:07.612Z,10.8018
2023-05-14T00:05:09.681Z,10.8276
2023-05-14T00:06:10.793Z,10.8565
2023-05-14T00:07:11.897Z,10.8334
2023-05-14T00:08:12.893Z,10.8240
2023-05-14T00:09:14.057Z,10.8632
2023-05-14T00:10:15.084Z,10.9987
2023-05-14T00:11:16.155Z,11.1039
2023-05-14T00:12:17.226Z,11.0891
2023-05-14T00:13:18.293Z,11.0755
2023-05-14T00:14:19.423Z,11.0422
2023-05-14T00:15:20.467Z,10.9736
2023-05-14T00:16:21.579Z,10.9484
2023-05-14T00:17:22.688Z,10.9180
2023-05-14T00:18:23.795Z,10.9673
2023-05-14T00:19:24.875Z,10.9350
2023-05-14T00:20:26.048Z,10.8762
2023-05-14T00:21:27.140Z,10.9360
2023-05-14T00:22:28.272Z,10.9602
2023-05-14T00:23:29.391Z,10.9958
2023-05-14T00:24:30.542Z,10.9636
2023-05-14T00:25:31.660Z,10.8654
2023-05-14T00:26:32.684Z,10.8377
2023-05-14T00:27:33.748Z,10.8276
2023-05-14T00:28:34.886Z,10.8283
2023-05-14T00:29:35.992Z,10.8222
2023-05-14T00:30:37.124Z,10.7634
2023-05-14T00:31:38.142Z,10.7714
2023-05-14T00:32:39.340Z,10.8371
2023-05-14T00:33:40.332Z,10.7937
2023-05-14T00:34:41.492Z,10.7764
2023-05-14T00:35:42.557Z,10.7931
2023-05-14T00:36:43.562Z,10.8690
2023-05-14T00:37:44.542Z,10.8651
2023-05-14T00:38:45.687Z,10.8910
2023-05-14T00:39:46.697Z,10.8326
2023-05-14T00:40:47.880Z,10.7926
2023-05-14T00:41:48.878Z,10.8610
2023-05-14T00:42:49.986Z,10.8852
2023-05-14T00:43:51.053Z,10.8614
2023-05-14T00:44:52.100Z,10.8261
2023-05-14T00:45:53.339Z,10.8061
2023-05-14T00:46:54.493Z,10.7736
2023-05-14T00:47:55.461Z,10.7312
2023-05-14T00:48:56.532Z,10.7298
2023-05-14T00:49:57.743Z,10.7722
2023-05-14T00:50:58.723Z,10.7859
2023-05-14T00:51:59.856Z,10.7493
2023-05-14T00:53:00.886Z,10.7091
2023-05-14T00:54:02.031Z,10.6795
2023-05-14T00:55:03.055Z,10.6284
2023-05-14T00:56:04.111Z,10.6405
2023-05-14T00:57:05.243Z,10.6633
2023-05-14T00:58:06.300Z,10.6328
2023-05-14T00:59:07.397Z,10.5909
2023-05-14T01:00:08.473Z,10.5964
2023-05-14T01:01:09.716Z,10.6003
2023-05-14T01:02:10.705Z,10.6669
2023-05-14T01:03:12.010Z,10.6033
2023-05-14T01:04:13.181Z,10.5098
2023-05-14T01:05:14.310Z,10.4771
2023-05-14T01:06:15.469Z,10.4792
2023-05-14T01:07:16.491Z,10.4068
2023-05-14T01:08:17.628Z,10.4035
2023-05-14T01:09:18.724Z,10.4377
2023-05-14T01:10:19.809Z,10.4722
2023-05-14T01:11:20.953Z,10.5151
2023-05-14T01:12:21.960Z,10.4925
2023-05-14T01:13:23.144Z,10.4322
2023-05-14T01:14:24.117Z,10.3583
2023-05-14T01:15:25.238Z,10.3416
2023-05-14T01:16:26.365Z,10.3640
2023-05-14T01:17:28.408Z,10.4042
2023-05-14T01:18:29.488Z,10.4209
2023-05-14T01:19:30.553Z,10.4775
2023-05-14T01:20:31.681Z,10.4379
2023-05-14T01:21:32.713Z,10.4119
2023-05-14T01:22:34.840Z,10.4537
2023-05-14T01:23:35.976Z,10.4006
2023-05-14T01:24:36.978Z,10.4134
2023-05-14T01:25:38.074Z,10.4947
2023-05-14T01:26:39.109Z,10.6024
2023-05-14T01:27:40.245Z,10.6230
2023-05-14T01:28:41.303Z,10.6119
2023-05-14T01:29:43.399Z,10.5867
2023-05-14T01:30:44.509Z,10.4965
2023-05-14T01:31:45.592Z,10.4751
2023-05-14T01:32:46.707Z,10.4798
2023-05-14T01:33:48.832Z,10.4707
2023-05-14T01:34:49.851Z,10.4483
2023-05-14T01:35:50.988Z,10.4082
2023-05-14T01:36:52.028Z,10.4098
2023-05-14T01:37:53.168Z,10.4382
2023-05-14T01:38:54.230Z,10.5172
2023-05-14T01:39:55.321Z,10.4528
2023-05-14T01:40:56.362Z,10.4077
2023-05-14T01:41:57.524Z,10.3997
2023-05-14T01:42:58.623Z,10.4245
2023-05-14T01:43:59.728Z,10.4854
2023-05-14T01:45:00.858Z,10.4947
2023-05-14T01:46:01.965Z,10.5573
2023-05-14T01:47:03.041Z,10.5974
2023-05-14T01:48:04.241Z,10.6348
2023-05-14T01:49:06.256Z,10.6038
2023-05-14T01:50:07.461Z,10.6278
2023-05-14T01:51:08.440Z,10.6002
2023-05-14T01:52:09.581Z,10.5837
2023-05-14T01:53:10.598Z,10.6615
2023-05-14T01:54:11.762Z,10.6275
2023-05-14T01:55:12.747Z,10.5952
2023-05-14T01:56:13.913Z,10.5536
2023-05-14T01:57:14.938Z,10.7183
2023-05-14T01:58:16.043Z,10.8706
2023-05-14T01:59:17.072Z,10.9117
2023-05-14T02:00:18.201Z,10.9064
2023-05-14T02:01:19.313Z,10.8262
2023-05-14T02:02:20.426Z,10.7423
2023-05-14T02:03:21.500Z,10.7018
2023-05-14T02:04:22.765Z,10.7155
2023-05-14T02:05:23.825Z,10.6906
2023-05-14T02:06:24.921Z,10.6193
2023-05-14T02:07:25.983Z,10.6328
2023-05-14T02:08:27.117Z,10.6924
2023-05-14T02:09:28.117Z,10.6666
2023-05-14T02:10:29.290Z,10.7076
2023-05-14T02:11:30.381Z,10.6823
2023-05-14T02:12:31.483Z,10.8484
2023-05-14T02:13:32.568Z,10.9931
2023-05-14T02:14:33.635Z,10.8872
2023-05-14T02:15:34.662Z,10.7331
2023-05-14T02:16:35.770Z,10.7498
2023-05-14T02:17:36.963Z,10.6862
2023-05-14T02:18:38.142Z,10.6479
2023-05-14T02:19:39.162Z,10.7218
2023-05-14T02:20:40.267Z,10.8276
2023-05-14T02:21:41.299Z,10.7743
2023-05-14T02:22:42.464Z,10.7727
2023-05-14T02:23:43.468Z,10.7011
2023-05-14T02:24:44.503Z,10.7700
2023-05-14T02:25:45.644Z,10.8524
2023-05-14T02:26:46.757Z,10.7799
2023-05-14T02:27:47.844Z,10.6895
2023-05-14T02:28:48.959Z,10.7200
2023-05-14T02:29:49.977Z,10.8705
2023-05-14T02:30:51.210Z,10.9462
2023-05-14T02:31:53.281Z,10.8029
2023-05-14T02:32:54.495Z,10.7361
2023-05-14T02:33:55.501Z,10.8149
2023-05-14T02:34:56.554Z,10.8900
2023-05-14T02:35:57.680Z,10.8284
2023-05-14T02:36:58.789Z,10.6938
2023-05-14T02:37:59.762Z,10.6029
2023-05-14T02:39:00.831Z,10.6337
2023-05-14T02:40:01.862Z,10.5771
2023-05-14T02:41:02.916Z,10.5099
2023-05-14T02:42:03.996Z,10.4684
2023-05-14T02:43:05.125Z,10.5185
2023-05-14T02:44:06.227Z,10.5907
2023-05-14T02:45:07.356Z,10.7021
2023-05-14T02:46:08.382Z,10.7428
2023-05-14T02:47:09.657Z,10.7696
2023-05-14T02:48:10.857Z,10.8859
2023-05-14T02:49:11.905Z,10.9978
2023-05-14T02:50:12.982Z,11.1212
2023-05-14T02:51:14.004Z,11.0466
2023-05-14T02:52:15.098Z,10.8104
2023-05-14T02:53:16.129Z,10.6457
2023-05-14T02:54:17.228Z,10.5132
2023-05-14T02:55:18.342Z,10.4477
2023-05-14T02:56:19.477Z,10.5107
2023-05-14T02:57:20.595Z,10.5012
2023-05-14T02:58:26.018Z,10.4121
2023-05-14T02:59:22.102Z,10.4629
2023-05-14T03:00:23.750Z,10.4981
2023-05-14T03:01:25.536Z,10.4166
2023-05-14T03:02:27.941Z,10.3213
2023-05-14T03:03:29.359Z,10.2804
2023-05-14T03:04:30.920Z,10.2214
2023-05-14T03:05:32.063Z,10.1822
2023-05-14T03:06:33.095Z,10.1589
2023-05-14T03:07:34.189Z,10.1381
2023-05-14T03:08:35.408Z,10.1877
2023-05-14T03:09:38.301Z,10.1808
2023-05-14T03:10:39.522Z,10.1886
2023-05-14T03:11:40.633Z,10.2049
2023-05-14T03:12:41.799Z,10.2002
2023-05-14T03:13:42.909Z,10.2662
2023-05-14T03:14:43.986Z,10.2702
2023-05-14T03:15:45.075Z,10.2387
2023-05-14T03:16:46.197Z,10.2560
2023-05-14T03:17:48.342Z,10.3508
2023-05-14T03:18:49.359Z,10.3644
2023-05-14T03:19:50.487Z,10.3521
2023-05-14T03:20:51.621Z,10.3891
2023-05-14T03:21:52.681Z,10.3667
2023-05-14T03:22:54.111Z,10.4072
2023-05-14T03:23:55.301Z,10.4431
2023-05-14T03:24:56.373Z,10.4803
2023-05-14T03:25:57.474Z,10.5955
2023-05-14T03:26:58.544Z,10.5453
2023-05-14T03:27:59.681Z,10.6006
2023-05-14T03:29:00.673Z,10.6289
2023-05-14T03:30:02.104Z,10.6493
2023-05-14T03:31:03.119Z,10.7282
2023-05-14T03:42:43.676Z,10.7761
2023-05-14T03:42:43.676Z,10.8142
2023-05-14T03:42:43.676Z,10.8111
2023-05-14T03:42:54.766Z,10.9675
2023-05-14T03:43:55.862Z,10.9920
2023-05-14T03:44:56.931Z,10.9389
2023-05-14T03:45:58.033Z,10.8874
2023-05-14T03:46:59.031Z,10.8254
2023-05-14T03:48:00.309Z,10.9151
2023-05-14T03:49:01.422Z,11.0476
2023-05-14T03:50:02.602Z,11.0649
2023-05-14T03:51:03.643Z,11.0913
2023-05-14T03:52:04.775Z,11.1273
2023-05-14T03:53:05.908Z,11.1529
2023-05-14T03:54:07.016Z,11.1256
2023-05-14T03:55:08.098Z,10.9620
2023-05-14T03:56:09.099Z,10.9840
2023-05-14T03:57:10.183Z,11.1479
2023-05-14T03:58:11.290Z,11.1239
2023-05-14T03:59:12.357Z,11.0916
2023-05-14T04:00:13.869Z,10.9284
2023-05-14T04:01:14.923Z,10.7339
2023-05-14T04:02:16.113Z,10.6476
2023-05-14T04:03:19.809Z,10.5914
2023-05-14T04:04:19.211Z,10.4906
2023-05-14T04:05:20.575Z,10.5613
2023-05-14T04:06:22.752Z,10.5922
2023-05-14T04:07:24.216Z,10.6581
2023-05-14T04:08:26.279Z,10.5974
2023-05-14T04:09:27.761Z,10.6549
2023-05-14T04:11:33.934Z,10.5377
2023-05-14T04:12:34.586Z,10.5059
2023-05-14T04:13:36.602Z,10.6602
2023-05-14T04:14:38.807Z,10.7792
2023-05-14T04:15:40.497Z,10.6924
2023-05-14T04:16:42.097Z,10.5965
2023-05-14T04:17:44.520Z,10.6335
2023-05-14T04:18:46.450Z,10.6389
2023-05-14T04:19:47.977Z,10.5913
2023-05-14T04:20:49.712Z,10.6876
2023-05-14T04:21:52.041Z,10.7467
2023-05-14T04:22:53.410Z,10.7120
2023-05-14T04:23:54.652Z,10.7671
2023-05-14T04:24:55.893Z,10.7495
2023-05-14T04:25:57.013Z,10.6372
2023-05-14T04:26:58.489Z,10.6031
2023-05-14T04:28:00.121Z,10.6012
2023-05-14T04:29:01.304Z,10.6119
2023-05-14T04:30:02.649Z,10.6079
2023-05-14T04:31:03.900Z,10.5824
2023-05-14T04:32:05.218Z,10.6419
2023-05-14T04:33:07.356Z,10.6561
2023-05-14T04:34:08.464Z,10.7670
2023-05-14T04:35:09.696Z,10.9456
2023-05-14T04:36:11.067Z,10.9976
2023-05-14T04:37:12.272Z,10.9215
2023-05-14T04:38:13.445Z,11.0104
2023-05-14T04:39:14.607Z,11.1352
2023-05-14T04:40:15.805Z,11.1191
2023-05-14T04:41:16.947Z,11.0850
2023-05-14T04:42:18.165Z,11.1436
2023-05-14T04:43:19.401Z,11.1896
2023-05-14T04:44:20.565Z,11.1436
2023-05-14T04:45:21.729Z,11.2248
2023-05-14T04:46:22.987Z,11.1998
2023-05-14T04:47:24.163Z,11.0714
2023-05-14T04:48:25.438Z,10.9137
2023-05-14T04:49:26.665Z,10.7838
2023-05-14T04:50:27.992Z,10.7270
2023-05-14T04:51:29.149Z,10.7585
2023-05-14T04:52:30.594Z,10.7977
2023-05-14T04:53:31.720Z,10.8083
2023-05-14T04:54:33.059Z,10.9156
2023-05-14T04:55:35.312Z,10.9337
2023-05-14T04:56:36.522Z,10.9295
2023-05-14T04:57:37.836Z,10.9531
2023-05-14T04:58:39.024Z,10.9654
2023-05-14T04:59:40.165Z,10.9457
2023-05-14T05:00:41.334Z,11.0112
2023-05-14T05:01:42.631Z,11.1683
2023-05-14T05:02:44.868Z,11.2001
2023-05-14T05:03:46.185Z,11.1744
2023-05-14T05:04:47.505Z,11.3262
2023-05-14T05:05:48.736Z,11.3529
2023-05-14T05:06:49.865Z,11.2339
2023-05-14T05:07:51.100Z,11.3326
2023-05-14T05:08:52.349Z,11.5068
2023-05-14T05:09:53.847Z,11.6384
2023-05-14T05:10:55.235Z,11.7145
2023-05-14T05:11:56.427Z,11.7807
2023-05-14T05:12:57.629Z,11.7077
2023-05-14T05:13:58.755Z,11.5951
2023-05-14T05:14:59.968Z,11.5632
2023-05-14T05:16:01.232Z,11.4339
2023-05-14T05:17:02.592Z,11.5436
2023-05-14T05:18:04.004Z,11.4995
2023-05-14T05:19:06.329Z,11.5360
2023-05-14T05:20:08.085Z,11.7641
2023-05-14T05:21:09.171Z,11.9178
2023-05-14T05:22:10.358Z,11.9652
2023-05-14T05:23:11.526Z,11.7879
2023-05-14T05:24:12.754Z,11.6038
2023-05-14T05:25:14.484Z,11.4740
2023-05-14T05:26:15.608Z,11.4476
2023-05-14T05:27:16.965Z,11.3757
2023-05-14T05:28:18.299Z,11.2858
2023-05-14T05:29:19.805Z,11.4400
2023-05-14T05:30:20.920Z,11.5783
2023-05-14T05:31:22.183Z,11.6268
2023-05-14T05:32:23.488Z,11.4643
2023-05-14T05:33:24.696Z,11.3304
2023-05-14T05:34:25.908Z,11.3062
2023-05-14T05:35:26.984Z,11.3046
2023-05-14T05:36:28.356Z,11.3917
2023-05-14T05:37:29.622Z,11.5380
2023-05-14T05:38:31.005Z,11.6061
2023-05-14T05:39:32.421Z,11.5928
2023-05-14T05:40:33.603Z,11.6589
2023-05-14T05:41:34.781Z,11.8256
2023-05-14T05:42:36.032Z,11.9639
2023-05-14T05:43:37.318Z,12.0779
2023-05-14T05:44:38.613Z,12.0959
2023-05-14T05:45:39.771Z,12.0135
2023-05-14T05:46:41.018Z,12.0339
2023-05-14T05:47:42.287Z,11.9853
2023-05-14T05:48:43.473Z,11.9484
2023-05-14T05:49:44.923Z,11.9877
2023-05-14T05:50:46.166Z,12.1005
2023-05-14T05:51:47.303Z,12.1734
2023-05-14T05:52:48.481Z,12.2370
2023-05-14T05:53:49.773Z,12.2530
2023-05-14T05:54:51.020Z,12.2714
2023-05-14T05:55:52.190Z,12.3519
2023-05-14T05:56:53.286Z,12.2667
2023-05-14T05:57:54.578Z,12.3457
2023-05-14T05:58:55.942Z,12.4580
2023-05-14T05:59:57.105Z,12.6159
2023-05-14T06:00:58.425Z,12.5004
2023-05-14T06:01:59.691Z,12.5709
2023-05-14T06:03:01.049Z,12.5395
2023-05-14T06:04:02.236Z,12.6059
2023-05-14T06:05:03.365Z,12.6075
2023-05-14T06:06:04.437Z,12.6228
2023-05-14T06:07:05.512Z,12.7328
2023-05-14T06:08:06.734Z,12.8208
2023-05-14T06:09:07.940Z,12.9063
2023-05-14T06:10:09.197Z,12.9281
2023-05-14T06:11:10.311Z,12.8858
2023-05-14T06:12:11.541Z,12.8348
2023-05-14T06:13:12.793Z,12.6986
2023-05-14T06:14:14.086Z,12.6156
2023-05-14T06:15:15.433Z,12.3268
2023-05-14T06:16:16.799Z,12.1041
2023-05-14T06:17:17.899Z,12.0748
2023-05-14T06:18:20.065Z,11.9195
2023-05-14T06:19:21.484Z,11.7832
2023-05-14T06:20:22.942Z,11.6897
2023-05-14T06:21:25.151Z,11.7337
2023-05-14T06:22:26.651Z,11.6325
2023-05-14T06:23:27.962Z,11.6341
2023-05-14T06:24:29.087Z,11.5870
2023-05-14T06:25:30.375Z,11.6730
2023-05-14T06:26:31.438Z,11.8233
2023-05-14T06:27:33.982Z,11.8012
2023-05-14T06:28:35.265Z,11.8291
2023-05-14T06:29:36.541Z,11.8647
2023-05-14T06:30:38.319Z,11.8071
2023-05-14T06:31:39.669Z,11.6791
2023-05-14T06:32:41.028Z,11.6145
2023-05-14T06:33:43.388Z,11.7153
2023-05-14T06:34:44.685Z,11.7394
2023-05-14T06:35:45.946Z,11.7062
2023-05-14T06:36:47.372Z,11.7609
2023-05-14T06:37:48.540Z,11.7413
2023-05-14T06:38:49.672Z,11.6961
2023-05-14T06:39:50.816Z,11.7254
2023-05-14T06:40:52.096Z,11.7122
2023-05-14T06:41:53.328Z,11.7814
2023-05-14T06:42:54.548Z,11.8093
2023-05-14T06:43:55.842Z,11.7705
2023-05-14T06:44:57.131Z,11.8234
2023-05-14T06:45:58.553Z,11.8544
2023-05-14T06:46:59.860Z,11.8859
2023-05-14T06:48:01.571Z,11.9696
2023-05-14T06:49:03.798Z,11.9290
2023-05-14T06:50:04.906Z,11.8937
2023-05-14T06:51:06.171Z,11.9488
2023-05-14T06:52:07.441Z,12.0663
2023-05-14T06:53:08.594Z,11.9804
2023-05-14T06:54:10.028Z,11.8167
2023-05-14T06:55:11.401Z,11.7398
2023-05-14T06:56:12.469Z,11.7201
2023-05-14T06:57:14.823Z,11.8143
2023-05-14T06:58:16.234Z,11.9965
2023-05-14T06:59:18.570Z,12.1001
2023-05-14T07:00:19.850Z,12.1800
2023-05-14T07:01:21.208Z,12.0923
2023-05-14T07:02:23.435Z,11.9140
2023-05-14T07:03:24.750Z,11.8834
2023-05-14T07:04:25.959Z,11.8158
2023-05-14T07:05:28.232Z,11.7879
2023-05-14T07:06:30.543Z,11.8328
2023-05-14T07:07:31.837Z,11.8419
2023-05-14T07:08:33.031Z,11.9416
2023-05-14T07:09:34.267Z,12.0776
2023-05-14T07:10:35.650Z,12.2382
2023-05-14T07:11:36.800Z,12.2246
2023-05-14T07:12:37.958Z,12.2741
2023-05-14T07:13:39.144Z,12.4208
2023-05-14T07:14:40.450Z,12.4795
2023-05-14T07:16:54.973Z,12.4753
2023-05-14T07:17:05.416Z,12.5091
2023-05-14T07:18:06.960Z,12.5437
2023-05-14T07:19:09.213Z,12.6856
2023-05-14T07:20:11.363Z,12.7893
2023-05-14T07:21:12.959Z,12.8548
2023-05-14T07:22:14.507Z,12.9322
2023-05-14T07:23:16.977Z,12.9933
2023-05-14T07:24:17.237Z,12.8371
2023-05-14T07:25:19.405Z,12.6148
2023-05-14T07:26:21.285Z,12.5921
2023-05-14T07:27:23.947Z,12.5403
2023-05-14T07:28:26.409Z,12.4153
2023-05-14T07:29:28.815Z,12.2966
2023-05-14T07:30:28.227Z,12.1887
2023-05-14T07:31:29.797Z,12.0908
2023-05-14T07:32:32.215Z,12.1350
2023-05-14T07:33:33.651Z,12.3241
2023-05-14T07:34:34.978Z,12.4937
2023-05-14T07:35:36.570Z,12.4822
2023-05-14T07:36:38.564Z,12.1418
2023-05-14T07:37:40.542Z,11.8822
2023-05-14T07:38:43.278Z,11.8225
2023-05-14T07:39:41.935Z,11.9318
2023-05-14T07:40:43.546Z,12.0203
2023-05-14T07:41:45.250Z,12.0256
2023-05-14T07:42:46.716Z,11.9422
2023-05-14T07:43:48.045Z,11.9338
2023-05-14T07:44:50.149Z,11.8811
2023-05-14T07:45:51.563Z,11.8132
2023-05-14T07:46:52.925Z,11.8957
2023-05-14T07:47:54.440Z,11.9982
2023-05-14T07:48:55.812Z,12.0275
2023-05-14T07:49:57.552Z,12.0837
2023-05-14T07:50:59.985Z,12.1449
2023-05-14T07:52:01.515Z,12.2740
2023-05-14T07:53:03.381Z,12.3510
2023-05-14T07:54:03.241Z,12.3467
2023-05-14T07:55:04.845Z,12.4561
2023-05-14T07:56:06.315Z,12.5838
2023-05-14T07:57:07.581Z,12.7292
2023-05-14T07:58:09.003Z,12.8056
2023-05-14T07:59:10.576Z,12.8277
2023-05-14T08:00:11.904Z,12.7232
2023-05-14T08:01:14.084Z,12.7118
2023-05-14T08:02:16.439Z,12.7717
2023-05-14T08:03:19.361Z,12.8738
2023-05-14T08:04:19.533Z,12.8513
2023-05-14T08:05:21.269Z,12.9060
2023-05-14T08:06:22.767Z,12.8834
2023-05-14T08:07:26.556Z,12.8217
2023-05-14T08:08:28.600Z,12.9713
2023-05-14T08:09:30.089Z,13.1471
2023-05-14T08:10:31.960Z,13.2457
2023-05-14T08:11:35.101Z,13.4318
2023-05-14T08:12:36.212Z,13.5645
2023-05-14T08:13:38.195Z,13.6008
2023-05-14T08:14:39.432Z,13.6361
2023-05-14T08:15:40.753Z,13.7216
2023-05-14T08:16:42.301Z,13.8284
2023-05-14T08:17:44.366Z,13.8341
2023-05-14T08:18:45.956Z,13.8148
2023-05-14T08:19:47.462Z,13.8019
2023-05-14T08:20:49.003Z,13.7562
2023-05-14T08:21:50.135Z,13.7627
2023-05-14T08:22:51.467Z,13.6583
2023-05-14T08:23:52.573Z,13.7229
2023-05-14T08:24:53.739Z,13.6263
2023-05-14T08:26:04.512Z,13.6010
2023-05-14T08:26:56.273Z,13.7339
2023-05-14T08:27:57.366Z,13.8255
2023-05-14T08:28:58.590Z,13.8128
2023-05-14T08:30:01.040Z,13.8623
2023-05-14T08:31:02.250Z,13.9647
2023-05-14T08:32:08.744Z,13.9035
2023-05-14T08:33:03.959Z,13.7910
2023-05-14T08:34:05.031Z,13.7892
2023-05-14T08:35:06.088Z,13.8600
2023-05-14T08:36:07.178Z,13.7549
2023-05-14T08:37:08.424Z,13.7913
2023-05-14T08:38:09.536Z,13.7909
2023-05-14T08:39:10.801Z,13.6940
2023-05-14T08:40:11.854Z,13.5637
2023-05-14T08:41:12.913Z,13.6607
2023-05-14T08:42:14.058Z,13.7897
2023-05-14T08:43:15.058Z,13.8262
2023-05-14T08:44:16.126Z,13.8825
2023-05-14T08:45:17.152Z,13.9986
2023-05-14T08:46:18.299Z,14.0213
2023-05-14T08:47:19.308Z,14.0224
2023-05-14T08:48:20.528Z,14.0605
2023-05-14T08:49:22.780Z,14.0930
2023-05-14T08:50:23.974Z,14.1183
2023-05-14T08:51:24.996Z,14.2303
2023-05-14T08:52:26.050Z,14.2654
2023-05-14T08:53:27.224Z,14.2571
2023-05-14T08:54:28.334Z,14.2777
2023-05-14T08:55:29.434Z,14.2952
2023-05-14T08:56:30.500Z,14.2933
2023-05-14T08:57:31.825Z,14.3445
2023-05-14T08:58:32.843Z,14.3451
2023-05-14T08:59:33.938Z,14.4499
2023-05-14T09:00:35.012Z,14.4053
2023-05-14T09:01:36.089Z,14.3571
2023-05-14T09:02:37.150Z,14.3397
2023-05-14T09:03:38.517Z,14.3931
2023-05-14T09:04:40.654Z,14.4380
2023-05-14T09:05:41.726Z,14.4951
2023-05-14T09:06:43.025Z,14.5429
2023-05-14T09:07:44.104Z,14.4673
2023-05-14T09:08:45.217Z,14.6105
2023-05-14T09:09:46.317Z,14.7655
2023-05-14T09:10:47.421Z,14.7441
2023-05-14T09:11:48.535Z,14.7558
2023-05-14T09:12:49.598Z,14.8361
2023-05-14T09:13:50.734Z,14.8675
2023-05-14T09:14:51.944Z,14.9137
2023-05-14T09:15:53.048Z,14.9502
2023-05-14T09:16:54.206Z,15.1062
2023-05-14T09:17:55.396Z,15.1102
2023-05-14T09:18:56.559Z,15.0096
2023-05-14T09:19:57.663Z,15.0145
2023-05-14T09:20:58.777Z,14.9077
2023-05-14T09:21:59.858Z,14.9439
2023-05-14T09:23:00.934Z,14.9342
2023-05-14T09:24:02.042Z,14.9182
2023-05-14T09:25:03.120Z,14.8692
2023-05-14T09:26:04.171Z,14.8411
2023-05-14T09:27:05.325Z,14.8832
2023-05-14T09:28:06.403Z,14.9018
2023-05-14T09:29:07.482Z,14.9208
2023-05-14T09:30:08.572Z,15.0061
2023-05-14T09:31:09.814Z,14.8924
2023-05-14T09:32:10.872Z,14.6311
2023-05-14T09:33:12.009Z,14.4823
2023-05-14T09:34:13.107Z,14.5590
2023-05-14T09:35:14.165Z,14.6892
2023-05-14T09:36:15.429Z,14.8323
2023-05-14T09:37:16.492Z,14.9065
2023-05-14T09:38:17.554Z,14.9559
2023-05-14T09:39:18.779Z,14.9916
2023-05-14T09:40:19.821Z,15.0941
2023-05-14T09:41:20.878Z,15.0473
2023-05-14T09:42:21.961Z,15.0021
2023-05-14T09:43:23.326Z,14.9923
2023-05-14T09:44:24.355Z,14.9182
2023-05-14T09:45:25.443Z,14.8907
2023-05-14T09:46:26.508Z,14.9624
2023-05-14T09:47:27.723Z,15.0167
2023-05-14T09:48:28.995Z,15.0271
2023-05-14T09:49:30.050Z,15.0972
2023-05-14T09:50:31.141Z,15.2003
2023-05-14T09:51:32.151Z,15.2871
2023-05-14T09:52:33.292Z,15.3888
2023-05-14T09:53:34.328Z,15.4439
2023-05-14T09:54:35.593Z,15.5349
2023-05-14T09:55:36.622Z,15.4846
2023-05-14T09:56:37.627Z,15.5248
2023-05-14T09:57:38.775Z,15.5419
2023-05-14T09:58:39.866Z,15.5314
2023-05-14T09:59:40.894Z,15.4394
2023-05-14T10:00:41.952Z,15.3757
2023-05-14T10:01:43.310Z,15.2937
2023-05-14T10:02:44.474Z,15.1562
2023-05-14T10:03:46.519Z,15.1974
2023-05-14T10:04:47.648Z,15.2684
2023-05-14T10:05:48.739Z,15.2860
2023-05-14T10:06:49.836Z,15.3865
2023-05-14T10:07:50.872Z,15.4442
2023-05-14T10:08:51.947Z,15.4967
2023-05-14T10:09:53.230Z,15.4600
2023-05-14T10:10:54.355Z,15.5015
2023-05-14T10:11:55.468Z,15.6133
2023-05-14T10:12:56.523Z,15.4940
2023-05-14T10:13:57.596Z,15.2791
2023-05-14T10:14:58.820Z,15.1858
2023-05-14T10:15:59.872Z,15.1839
2023-05-14T10:17:00.989Z,15.1707
2023-05-14T10:18:02.052Z,15.2940
2023-05-14T10:19:04.146Z,15.4007
2023-05-14T10:20:05.327Z,15.5079
2023-05-14T10:21:07.435Z,15.5668
2023-05-14T10:22:08.451Z,15.5409
2023-05-14T10:23:09.541Z,15.6084
2023-05-14T10:24:10.582Z,15.7073
2023-05-14T10:25:11.658Z,15.7808
2023-05-14T10:26:12.889Z,15.7324
2023-05-14T10:27:14.021Z,15.6426
2023-05-14T10:28:15.070Z,15.6740
2023-05-14T10:29:16.292Z,15.7333
2023-05-14T10:30:17.295Z,15.4650
2023-05-14T10:31:18.539Z,15.4167
2023-05-14T10:32:19.571Z,15.3679
2023-05-14T10:33:20.634Z,15.4019
2023-05-14T10:34:21.668Z,15.4454
2023-05-14T10:35:22.764Z,15.5135
2023-05-14T10:36:23.841Z,15.4911
2023-05-14T10:37:25.078Z,15.5769
2023-05-14T10:38:26.143Z,15.6772
2023-05-14T10:39:27.206Z,15.5533
2023-05-14T10:40:28.266Z,15.3216
2023-05-14T10:41:29.429Z,15.3528
2023-05-14T10:42:30.550Z,15.4324
2023-05-14T10:43:31.675Z,15.4349
2023-05-14T10:44:32.744Z,15.3809
2023-05-14T10:45:33.825Z,15.2750
2023-05-14T10:46:35.145Z,15.2160
2023-05-14T10:47:37.287Z,15.3561
2023-05-14T10:48:39.274Z,15.4108
2023-05-14T10:49:43.831Z,15.3296
2023-05-14T10:50:41.901Z,15.3352
2023-05-14T10:51:43.093Z,15.4018
2023-05-14T10:52:45.079Z,15.4912
2023-05-14T10:53:46.139Z,15.6073
2023-05-14T10:54:47.278Z,15.6686
2023-05-14T10:55:48.429Z,15.7111
2023-05-14T10:56:49.554Z,15.6964
2023-05-14T10:57:50.758Z,15.7394
2023-05-14T10:58:51.872Z,15.8247
2023-05-14T10:59:52.931Z,15.9658
2023-05-14T11:00:54.072Z,16.0449
2023-05-14T11:01:55.208Z,15.9909
2023-05-14T11:02:56.665Z,15.8713
2023-05-14T11:03:57.823Z,15.8306
2023-05-14T11:04:58.932Z,15.9052
2023-05-14T11:06:00.045Z,15.8981
2023-05-14T11:07:01.095Z,15.7639
2023-05-14T11:08:02.167Z,15.7938
2023-05-14T11:09:03.239Z,15.7220
2023-05-14T11:10:04.281Z,15.6670
2023-05-14T11:11:05.396Z,15.7055
2023-05-14T11:12:06.452Z,15.7716
2023-05-14T11:13:07.560Z,15.7751
2023-05-14T11:14:10.144Z,15.7190
2023-05-14T11:15:11.449Z,15.6797
2023-05-14T11:16:22.825Z,15.7416
2023-05-14T11:17:13.362Z,15.6164
2023-05-14T11:18:15.535Z,15.8051
2023-05-14T11:19:16.733Z,15.9159
2023-05-14T11:20:17.981Z,15.8959
2023-05-14T11:21:19.114Z,16.0831
2023-05-14T11:22:20.280Z,16.2121
2023-05-14T11:23:21.354Z,16.3536
2023-05-14T11:24:22.375Z,16.4174
2023-05-14T11:25:23.638Z,16.4694
2023-05-14T11:26:24.853Z,16.5914
2023-05-14T11:27:26.128Z,16.6612
2023-05-14T11:28:27.319Z,16.6015
2023-05-14T11:29:28.457Z,16.5564
2023-05-14T11:30:29.929Z,16.8453
2023-05-14T11:31:31.279Z,17.0514
2023-05-14T11:32:33.475Z,17.1303
2023-05-14T11:33:35.656Z,16.8292
2023-05-14T11:34:36.939Z,16.7694
2023-05-14T11:35:38.044Z,16.9493
2023-05-14T11:36:39.117Z,16.8407
2023-05-14T11:37:40.371Z,16.7010
2023-05-14T11:38:41.455Z,16.5723
2023-05-14T11:39:42.606Z,16.5779
2023-05-14T11:40:44.003Z,16.3254
2023-05-14T11:41:45.065Z,16.2822
2023-05-14T11:42:46.204Z,16.2498
2023-05-14T11:43:47.283Z,16.0567
2023-05-14T11:44:48.450Z,16.0707
2023-05-14T11:45:49.724Z,16.0148
2023-05-14T11:46:50.856Z,15.9120
2023-05-14T11:47:51.976Z,15.8626
2023-05-14T11:48:54.088Z,15.9015
2023-05-14T11:49:55.190Z,15.9788
2023-05-14T11:50:56.262Z,15.8391
2023-05-14T11:51:57.418Z,15.8356
2023-05-14T11:52:58.465Z,15.6572
2023-05-14T11:53:59.553Z,15.6038
2023-05-14T11:55:00.629Z,15.5258
2023-05-14T11:56:01.729Z,15.2769
2023-05-14T11:57:03.002Z,15.1136
2023-05-14T11:58:04.113Z,14.8594
2023-05-14T11:59:05.153Z,14.6367
2023-05-14T12:00:06.310Z,14.5690
2023-05-14T12:01:07.393Z,14.4889
2023-05-14T12:02:08.506Z,14.4771
2023-05-14T12:03:09.697Z,14.6063
2023-05-14T12:04:10.995Z,14.7959
2023-05-14T12:05:12.157Z,14.8396
2023-05-14T12:06:13.283Z,14.9578
2023-05-14T12:07:14.359Z,14.9555
2023-05-14T12:08:15.428Z,15.0500
2023-05-14T12:09:16.783Z,15.1671
2023-05-14T12:10:17.888Z,15.1390
2023-05-14T12:11:19.006Z,15.1426
2023-05-14T12:12:20.098Z,15.1988
2023-05-14T12:13:21.146Z,15.3304
2023-05-14T12:14:22.312Z,15.4184
2023-05-14T12:15:23.409Z,15.4042
2023-05-14T12:16:24.814Z,15.3779
2023-05-14T12:17:26.905Z,15.4640
2023-05-14T12:18:29.061Z,15.4067
2023-05-14T12:19:31.179Z,15.2787
2023-05-14T12:20:32.361Z,15.2981
2023-05-14T12:21:33.459Z,15.4061
2023-05-14T12:22:36.868Z,15.4065
2023-05-14T12:23:34.866Z,15.2283
2023-05-14T12:24:36.214Z,14.9814
2023-05-14T12:25:37.301Z,14.8670
2023-05-14T12:26:38.624Z,14.8384
2023-05-14T12:27:39.740Z,14.6727
2023-05-14T12:28:40.849Z,14.4273
2023-05-14T12:29:41.935Z,14.3480